sensor_id;sensor_type;location;lat;lon;timestamp;pressure;altitude;pressure_sealevel;temperature;humidity
28004;BME280;15330;51.234;6.754;2023-01-29T00:01:09;102581.72;;;0.00;87.74
28004;BME280;15330;51.234;6.754;2023-01-29T00:03:34;102576.41;;;0.02;88.22
28004;BME280;15330;51.234;6.754;2023-01-29T00:06:03;102584.19;;;0.05;87.46
28004;BME280;15330;51.234;6.754;2023-01-29T00:08:32;102582.50;;;-0.22;88.94
28004;BME280;15330;51.234;6.754;2023-01-29T00:11:02;102568.69;;;-0.29;89.05
28004;BME280;15330;51.234;6.754;2023-01-29T00:13:27;102569.09;;;-0.15;88.27
28004;BME280;15330;51.234;6.754;2023-01-29T00:15:57;102568.91;;;-0.10;88.21
28004;BME280;15330;51.234;6.754;2023-01-29T00:18:23;102573.59;;;-0.45;89.03
28004;BME280;15330;51.234;6.754;2023-01-29T00:20:49;102572.22;;;-0.30;88.57
28004;BME280;15330;51.234;6.754;2023-01-29T00:23:14;102567.44;;;-0.44;89.53
28004;BME280;15330;51.234;6.754;2023-01-29T00:25:41;102572.81;;;-0.48;89.34
28004;BME280;15330;51.234;6.754;2023-01-29T00:28:06;102562.72;;;-0.34;89.14
28004;BME280;15330;51.234;6.754;2023-01-29T00:30:32;102574.66;;;-0.24;88.48
28004;BME280;15330;51.234;6.754;2023-01-29T00:32:57;102571.53;;;-0.10;88.15
28004;BME280;15330;51.234;6.754;2023-01-29T00:35:23;102562.72;;;-0.34;87.78
28004;BME280;15330;51.234;6.754;2023-01-29T00:37:48;102552.25;;;-0.35;87.69
28004;BME280;15330;51.234;6.754;2023-01-29T00:40:14;102556.22;;;-0.22;87.76
28004;BME280;15330;51.234;6.754;2023-01-29T00:42:40;102558.66;;;-0.18;87.11
28004;BME280;15330;51.234;6.754;2023-01-29T00:45:24;102566.69;;;-0.21;87.43
28004;BME280;15330;51.234;6.754;2023-01-29T00:47:49;102563.25;;;-0.23;87.60
28004;BME280;15330;51.234;6.754;2023-01-29T00:50:14;102556.03;;;-0.18;87.46
28004;BME280;15330;51.234;6.754;2023-01-29T00:52:40;102558.63;;;-0.16;87.30
28004;BME280;15330;51.234;6.754;2023-01-29T00:55:06;102548.34;;;-0.50;88.58
28004;BME280;15330;51.234;6.754;2023-01-29T00:57:33;102553.13;;;-0.35;88.66
28004;BME280;15330;51.234;6.754;2023-01-29T00:59:59;102546.00;;;-0.31;88.12
28004;BME280;15330;51.234;6.754;2023-01-29T01:02:24;102565.25;;;-0.31;88.24
28004;BME280;15330;51.234;6.754;2023-01-29T01:05:23;102555.72;;;-0.61;89.60
28004;BME280;15330;51.234;6.754;2023-01-29T01:07:51;102558.88;;;-0.50;89.18
28004;BME280;15330;51.234;6.754;2023-01-29T01:10:28;102564.34;;;-0.56;89.79
28004;BME280;15330;51.234;6.754;2023-01-29T01:15:22;102575.16;;;-0.39;88.63
28004;BME280;15330;51.234;6.754;2023-01-29T01:17:54;102572.53;;;-0.39;88.27
28004;BME280;15330;51.234;6.754;2023-01-29T01:20:21;102567.44;;;-0.44;88.66
28004;BME280;15330;51.234;6.754;2023-01-29T01:22:46;102570.38;;;-0.53;89.16
28004;BME280;15330;51.234;6.754;2023-01-29T01:25:11;102558.34;;;-0.61;89.62
28004;BME280;15330;51.234;6.754;2023-01-29T01:27:37;102564.75;;;-0.42;89.03
28004;BME280;15330;51.234;6.754;2023-01-29T01:30:10;102569.53;;;-0.55;89.42
28004;BME280;15330;51.234;6.754;2023-01-29T01:32:36;102539.44;;;-0.73;89.92
28004;BME280;15330;51.234;6.754;2023-01-29T01:35:01;102552.34;;;-0.65;89.50
28004;BME280;15330;51.234;6.754;2023-01-29T01:37:27;102535.72;;;-0.65;89.98
28004;BME280;15330;51.234;6.754;2023-01-29T01:39:52;102527.75;;;-0.62;89.70
28004;BME280;15330;51.234;6.754;2023-01-29T01:42:22;102523.25;;;-0.87;90.63
28004;BME280;15330;51.234;6.754;2023-01-29T01:44:58;102520.88;;;-0.66;89.40
28004;BME280;15330;51.234;6.754;2023-01-29T01:49:54;102518.53;;;-0.76;90.47
28004;BME280;15330;51.234;6.754;2023-01-29T01:52:21;102533.53;;;-0.79;90.31
28004;BME280;15330;51.234;6.754;2023-01-29T01:54:48;102529.22;;;-0.82;90.87
28004;BME280;15330;51.234;6.754;2023-01-29T01:57:18;102524.59;;;-0.73;90.04
28004;BME280;15330;51.234;6.754;2023-01-29T01:59:52;102528.84;;;-0.69;90.35
28004;BME280;15330;51.234;6.754;2023-01-29T02:02:19;102521.03;;;-0.73;90.28
28004;BME280;15330;51.234;6.754;2023-01-29T02:05:03;102526.13;;;-0.66;89.54
28004;BME280;15330;51.234;6.754;2023-01-29T02:07:49;102530.59;;;-0.70;90.05
28004;BME280;15330;51.234;6.754;2023-01-29T02:10:43;102533.47;;;-0.78;89.97
28004;BME280;15330;51.234;6.754;2023-01-29T02:13:08;102532.88;;;-0.86;90.77
28004;BME280;15330;51.234;6.754;2023-01-29T02:15:35;102527.63;;;-0.86;90.81
28004;BME280;15330;51.234;6.754;2023-01-29T02:18:00;102532.09;;;-0.89;91.34
28004;BME280;15330;51.234;6.754;2023-01-29T02:20:29;102543.56;;;-0.92;91.39
28004;BME280;15330;51.234;6.754;2023-01-29T02:28:50;102559.56;;;-0.99;92.13
28004;BME280;15330;51.234;6.754;2023-01-29T02:31:33;102557.13;;;-0.78;91.51
28004;BME280;15330;51.234;6.754;2023-01-29T02:34:09;102564.19;;;-0.80;91.70
28004;BME280;15330;51.234;6.754;2023-01-29T02:36:45;102574.09;;;-0.88;91.71
28004;BME280;15330;51.234;6.754;2023-01-29T02:44:54;102573.66;;;-0.74;91.70
28004;BME280;15330;51.234;6.754;2023-01-29T02:47:23;102584.41;;;-0.54;90.32
28004;BME280;15330;51.234;6.754;2023-01-29T02:50:11;102583.28;;;-0.47;90.23
28004;BME280;15330;51.234;6.754;2023-01-29T02:52:44;102580.00;;;-0.53;90.92
28004;BME280;15330;51.234;6.754;2023-01-29T02:55:37;102567.03;;;-0.59;90.83
28004;BME280;15330;51.234;6.754;2023-01-29T02:58:21;102562.66;;;-0.59;90.67
28004;BME280;15330;51.234;6.754;2023-01-29T03:00:51;102554.47;;;-0.76;91.86
28004;BME280;15330;51.234;6.754;2023-01-29T03:03:30;102562.28;;;-0.75;91.24
28004;BME280;15330;51.234;6.754;2023-01-29T03:06:14;102554.59;;;-0.81;91.50
28004;BME280;15330;51.234;6.754;2023-01-29T03:08:51;102553.16;;;-0.91;91.57
28004;BME280;15330;51.234;6.754;2023-01-29T03:11:19;102548.91;;;-0.95;92.37
28004;BME280;15330;51.234;6.754;2023-01-29T03:13:52;102552.50;;;-0.97;92.19
28004;BME280;15330;51.234;6.754;2023-01-29T03:16:38;102542.81;;;-0.95;92.22
28004;BME280;15330;51.234;6.754;2023-01-29T03:19:10;102556.44;;;-1.12;93.22
28004;BME280;15330;51.234;6.754;2023-01-29T03:21:39;102547.19;;;-0.96;92.86
28004;BME280;15330;51.234;6.754;2023-01-29T03:24:23;102560.03;;;-1.15;93.86
28004;BME280;15330;51.234;6.754;2023-01-29T03:27:09;102559.59;;;-1.30;94.46
28004;BME280;15330;51.234;6.754;2023-01-29T03:29:55;102559.88;;;-1.10;94.07
28004;BME280;15330;51.234;6.754;2023-01-29T03:32:42;102553.41;;;-0.98;92.83
28004;BME280;15330;51.234;6.754;2023-01-29T03:35:10;102560.41;;;-0.99;93.05
28004;BME280;15330;51.234;6.754;2023-01-29T03:37:42;102565.44;;;-0.91;92.86
28004;BME280;15330;51.234;6.754;2023-01-29T03:40:11;102564.41;;;-0.86;92.44
28004;BME280;15330;51.234;6.754;2023-01-29T03:45:36;102554.88;;;-0.90;92.49
28004;BME280;15330;51.234;6.754;2023-01-29T03:48:31;102562.09;;;-0.96;92.41
28004;BME280;15330;51.234;6.754;2023-01-29T03:59:29;102557.28;;;-1.12;93.56
28004;BME280;15330;51.234;6.754;2023-01-29T04:01:59;102549.22;;;-1.35;93.91
28004;BME280;15330;51.234;6.754;2023-01-29T04:04:30;102533.16;;;-1.24;93.40
28004;BME280;15330;51.234;6.754;2023-01-29T04:07:03;102541.78;;;-1.19;93.59
28004;BME280;15330;51.234;6.754;2023-01-29T04:09:43;102548.09;;;-1.25;94.05
28004;BME280;15330;51.234;6.754;2023-01-29T04:12:11;102546.31;;;-1.55;94.73
28004;BME280;15330;51.234;6.754;2023-01-29T04:14:37;102534.59;;;-1.43;95.11
28004;BME280;15330;51.234;6.754;2023-01-29T04:17:30;102531.47;;;-1.25;93.94
28004;BME280;15330;51.234;6.754;2023-01-29T04:20:00;102526.63;;;-1.39;94.57
28004;BME280;15330;51.234;6.754;2023-01-29T04:22:30;102521.88;;;-1.26;94.52
28004;BME280;15330;51.234;6.754;2023-01-29T04:24:57;102524.44;;;-1.25;94.15
28004;BME280;15330;51.234;6.754;2023-01-29T04:28:04;102521.41;;;-1.40;94.72
28004;BME280;15330;51.234;6.754;2023-01-29T04:33:47;102518.06;;;-1.45;94.59
28004;BME280;15330;51.234;6.754;2023-01-29T04:36:40;102512.91;;;-1.19;94.20
28004;BME280;15330;51.234;6.754;2023-01-29T04:39:25;102510.63;;;-1.31;94.43
28004;BME280;15330;51.234;6.754;2023-01-29T04:47:18;102512.81;;;-1.45;94.86
28004;BME280;15330;51.234;6.754;2023-01-29T04:49:50;102514.16;;;-1.32;94.22
28004;BME280;15330;51.234;6.754;2023-01-29T04:52:27;102515.06;;;-1.33;94.30
28004;BME280;15330;51.234;6.754;2023-01-29T04:55:08;102510.31;;;-1.50;95.25
28004;BME280;15330;51.234;6.754;2023-01-29T04:58:04;102499.19;;;-1.58;95.66
28004;BME280;15330;51.234;6.754;2023-01-29T05:00:42;102495.72;;;-1.59;95.71
28004;BME280;15330;51.234;6.754;2023-01-29T05:03:11;102503.13;;;-1.43;94.78
28004;BME280;15330;51.234;6.754;2023-01-29T05:05:40;102502.31;;;-1.45;95.13
28004;BME280;15330;51.234;6.754;2023-01-29T05:08:07;102490.25;;;-1.53;95.02
28004;BME280;15330;51.234;6.754;2023-01-29T05:10:34;102500.38;;;-1.39;95.16
28004;BME280;15330;51.234;6.754;2023-01-29T05:13:01;102501.84;;;-1.60;95.49
28004;BME280;15330;51.234;6.754;2023-01-29T05:15:34;102495.81;;;-1.63;95.83
28004;BME280;15330;51.234;6.754;2023-01-29T05:18:01;102481.94;;;-0.82;94.77
28004;BME280;15330;51.234;6.754;2023-01-29T05:20:31;102482.44;;;-0.97;93.83
28004;BME280;15330;51.234;6.754;2023-01-29T05:22:57;102475.75;;;-1.07;94.42
28004;BME280;15330;51.234;6.754;2023-01-29T05:25:25;102472.97;;;-1.30;94.08
28004;BME280;15330;51.234;6.754;2023-01-29T05:27:52;102466.13;;;-0.80;92.72
28004;BME280;15330;51.234;6.754;2023-01-29T05:30:32;102474.84;;;-1.06;93.38
28004;BME280;15330;51.234;6.754;2023-01-29T05:32:58;102480.47;;;-1.46;94.42
28004;BME280;15330;51.234;6.754;2023-01-29T05:35:23;102472.94;;;-1.29;94.90
28004;BME280;15330;51.234;6.754;2023-01-29T05:37:49;102463.13;;;-1.24;94.08
28004;BME280;15330;51.234;6.754;2023-01-29T05:40:14;102464.69;;;-1.17;93.75
28004;BME280;15330;51.234;6.754;2023-01-29T15:16:59;102088.69;;;1.95;87.43
28004;BME280;15330;51.234;6.754;2023-01-29T15:19:35;102080.00;;;1.93;87.57
28004;BME280;15330;51.234;6.754;2023-01-29T15:22:17;102076.34;;;1.96;87.61
28004;BME280;15330;51.234;6.754;2023-01-29T15:24:45;102066.66;;;1.96;87.33
28004;BME280;15330;51.234;6.754;2023-01-29T15:27:16;102069.13;;;1.99;86.82
28004;BME280;15330;51.234;6.754;2023-01-29T15:29:47;102060.91;;;2.05;86.45
28004;BME280;15330;51.234;6.754;2023-01-29T15:32:40;102054.41;;;1.95;87.44
28004;BME280;15330;51.234;6.754;2023-01-29T15:35:27;102053.53;;;1.95;87.02
28004;BME280;15330;51.234;6.754;2023-01-29T15:38:01;102047.78;;;2.04;86.66
28004;BME280;15330;51.234;6.754;2023-01-29T15:40:26;102054.22;;;1.98;87.19
28004;BME280;15330;51.234;6.754;2023-01-29T15:42:52;102056.09;;;1.96;86.67
28004;BME280;15330;51.234;6.754;2023-01-29T15:45:27;102048.31;;;2.10;86.59
28004;BME280;15330;51.234;6.754;2023-01-29T15:48:14;102052.22;;;2.03;86.63
28004;BME280;15330;51.234;6.754;2023-01-29T15:50:42;102048.50;;;2.07;86.54
28004;BME280;15330;51.234;6.754;2023-01-29T15:53:29;102043.78;;;1.97;86.54
28004;BME280;15330;51.234;6.754;2023-01-29T15:55:56;102045.75;;;2.09;85.89
28004;BME280;15330;51.234;6.754;2023-01-29T15:58:29;102039.63;;;2.08;86.41
28004;BME280;15330;51.234;6.754;2023-01-29T16:00:59;102037.94;;;2.07;86.76
28004;BME280;15330;51.234;6.754;2023-01-29T16:03:27;102044.75;;;2.11;86.20
28004;BME280;15330;51.234;6.754;2023-01-29T16:05:55;102043.22;;;2.07;86.54
28004;BME280;15330;51.234;6.754;2023-01-29T16:08:21;102041.59;;;2.05;87.18
28004;BME280;15330;51.234;6.754;2023-01-29T16:10:52;102045.69;;;2.10;87.29
28004;BME280;15330;51.234;6.754;2023-01-29T16:13:21;102044.81;;;2.10;86.88
28004;BME280;15330;51.234;6.754;2023-01-29T16:16:16;102041.66;;;2.03;86.63
28004;BME280;15330;51.234;6.754;2023-01-29T16:18:44;102031.31;;;1.99;86.97
28004;BME280;15330;51.234;6.754;2023-01-29T16:23:51;102024.81;;;2.06;86.44
28004;BME280;15330;51.234;6.754;2023-01-29T16:26:23;102012.09;;;1.97;86.55
28004;BME280;15330;51.234;6.754;2023-01-29T16:28:49;102014.41;;;2.03;86.33
28004;BME280;15330;51.234;6.754;2023-01-29T16:31:27;102017.75;;;2.06;86.80
28004;BME280;15330;51.234;6.754;2023-01-29T16:33:56;102008.91;;;2.07;86.78
28004;BME280;15330;51.234;6.754;2023-01-29T16:36:24;101992.59;;;1.99;86.90
28004;BME280;15330;51.234;6.754;2023-01-29T16:38:58;101994.31;;;2.00;87.07
28004;BME280;15330;51.234;6.754;2023-01-29T16:43:51;102004.88;;;3.13;90.23
28004;BME280;15330;51.234;6.754;2023-01-29T16:46:22;101995.00;;;2.85;88.87
28004;BME280;15330;51.234;6.754;2023-01-29T16:48:48;102000.97;;;2.89;85.72
28004;BME280;15330;51.234;6.754;2023-01-29T16:51:21;101994.03;;;2.71;86.01
28004;BME280;15330;51.234;6.754;2023-01-29T16:56:32;101984.06;;;2.60;84.83
28004;BME280;15330;51.234;6.754;2023-01-29T16:58:59;101994.09;;;2.38;85.31
28004;BME280;15330;51.234;6.754;2023-01-29T17:01:27;101989.13;;;2.32;85.75
28004;BME280;15330;51.234;6.754;2023-01-29T17:04:06;101989.97;;;2.32;86.11
28004;BME280;15330;51.234;6.754;2023-01-29T17:06:34;101986.91;;;2.24;86.51
28004;BME280;15330;51.234;6.754;2023-01-29T17:09:01;101996.91;;;2.35;86.17
28004;BME280;15330;51.234;6.754;2023-01-29T17:11:32;101992.34;;;2.21;86.66
28004;BME280;15330;51.234;6.754;2023-01-29T17:13:59;101981.84;;;2.19;86.53
28004;BME280;15330;51.234;6.754;2023-01-29T17:18:55;101976.84;;;2.15;86.76
28004;BME280;15330;51.234;6.754;2023-01-29T17:21:21;101978.69;;;2.13;87.50
28004;BME280;15330;51.234;6.754;2023-01-29T17:23:47;101983.19;;;2.11;87.41
28004;BME280;15330;51.234;6.754;2023-01-29T17:26:13;101970.78;;;2.13;87.42
28004;BME280;15330;51.234;6.754;2023-01-29T17:28:39;101966.34;;;2.13;87.25
28004;BME280;15330;51.234;6.754;2023-01-29T17:31:05;101972.22;;;2.18;86.51
28004;BME280;15330;51.234;6.754;2023-01-29T17:33:33;101978.28;;;2.20;87.10
28004;BME280;15330;51.234;6.754;2023-01-29T17:35:58;101968.13;;;2.13;86.99
28004;BME280;15330;51.234;6.754;2023-01-29T17:38:24;101967.63;;;2.06;87.60
28004;BME280;15330;51.234;6.754;2023-01-29T17:40:56;101969.59;;;2.18;87.35
28004;BME280;15330;51.234;6.754;2023-01-29T17:43:22;101963.00;;;2.10;87.22
28004;BME280;15330;51.234;6.754;2023-01-29T17:45:47;101960.56;;;2.07;87.75
28004;BME280;15330;51.234;6.754;2023-01-29T17:48:23;101950.72;;;2.26;86.64
28004;BME280;15330;51.234;6.754;2023-01-29T17:50:51;101956.50;;;2.17;86.51
28004;BME280;15330;51.234;6.754;2023-01-29T17:53:18;101960.28;;;2.11;86.71
28004;BME280;15330;51.234;6.754;2023-01-29T17:55:44;101961.06;;;2.13;86.64
28004;BME280;15330;51.234;6.754;2023-01-29T17:58:16;101954.00;;;2.14;86.65
28004;BME280;15330;51.234;6.754;2023-01-29T18:00:41;101954.94;;;2.13;86.89
28004;BME280;15330;51.234;6.754;2023-01-29T18:03:07;101960.22;;;2.13;87.24
28004;BME280;15330;51.234;6.754;2023-01-29T18:05:32;101943.44;;;2.14;86.63
28004;BME280;15330;51.234;6.754;2023-01-29T18:07:58;101942.66;;;2.12;86.86
28004;BME280;15330;51.234;6.754;2023-01-29T18:10:23;101939.03;;;2.14;86.96
28004;BME280;15330;51.234;6.754;2023-01-29T18:12:48;101928.97;;;2.21;87.32
28004;BME280;15330;51.234;6.754;2023-01-29T18:15:14;101925.78;;;1.99;87.88
28004;BME280;15330;51.234;6.754;2023-01-29T18:17:39;101915.59;;;2.08;87.29
28004;BME280;15330;51.234;6.754;2023-01-29T18:20:19;101915.13;;;2.17;87.18
28004;BME280;15330;51.234;6.754;2023-01-29T18:22:45;101910.56;;;2.04;87.16
28004;BME280;15330;51.234;6.754;2023-01-29T18:25:11;101908.34;;;2.12;87.51
28004;BME280;15330;51.234;6.754;2023-01-29T18:27:37;101913.63;;;2.12;87.36
28004;BME280;15330;51.234;6.754;2023-01-29T18:30:03;101910.16;;;2.11;87.68
28004;BME280;15330;51.234;6.754;2023-01-29T18:32:29;101928.78;;;2.08;87.61
28004;BME280;15330;51.234;6.754;2023-01-29T18:34:55;101918.00;;;2.13;88.01
28004;BME280;15330;51.234;6.754;2023-01-29T18:37:20;101917.84;;;2.16;87.58
28004;BME280;15330;51.234;6.754;2023-01-29T18:39:46;101917.13;;;2.12;87.95
28004;BME280;15330;51.234;6.754;2023-01-29T18:42:11;101924.13;;;2.13;87.66
28004;BME280;15330;51.234;6.754;2023-01-29T18:44:36;101926.75;;;2.13;87.81
28004;BME280;15330;51.234;6.754;2023-01-29T18:47:02;101914.72;;;2.08;88.29
28004;BME280;15330;51.234;6.754;2023-01-29T18:49:29;101911.34;;;2.06;88.34
28004;BME280;15330;51.234;6.754;2023-01-29T18:51:55;101897.97;;;2.09;88.41
28004;BME280;15330;51.234;6.754;2023-01-29T18:54:20;101894.31;;;2.11;88.92
28004;BME280;15330;51.234;6.754;2023-01-29T18:56:46;101885.31;;;2.15;88.46
28004;BME280;15330;51.234;6.754;2023-01-29T18:59:11;101878.13;;;2.02;88.97
28004;BME280;15330;51.234;6.754;2023-01-29T19:01:36;101880.09;;;2.14;88.17
28004;BME280;15330;51.234;6.754;2023-01-29T19:04:03;101872.09;;;2.15;88.66
28004;BME280;15330;51.234;6.754;2023-01-29T19:06:28;101870.47;;;2.13;88.90
28004;BME280;15330;51.234;6.754;2023-01-29T19:08:54;101881.03;;;2.13;88.54
28004;BME280;15330;51.234;6.754;2023-01-29T19:11:19;101877.31;;;2.17;88.95
28004;BME280;15330;51.234;6.754;2023-01-29T19:13:45;101878.50;;;2.27;88.68
28004;BME280;15330;51.234;6.754;2023-01-29T19:16:12;101873.56;;;2.21;88.72
28004;BME280;15330;51.234;6.754;2023-01-29T19:18:38;101862.13;;;2.20;88.41
28004;BME280;15330;51.234;6.754;2023-01-29T19:21:11;101872.19;;;2.14;89.03
28004;BME280;15330;51.234;6.754;2023-01-29T19:23:37;101871.00;;;2.19;89.04
28004;BME280;15330;51.234;6.754;2023-01-29T19:26:02;101871.09;;;2.18;89.43
28004;BME280;15330;51.234;6.754;2023-01-29T19:28:28;101859.34;;;2.24;88.54
28004;BME280;15330;51.234;6.754;2023-01-29T19:30:58;101860.53;;;2.18;88.97
28004;BME280;15330;51.234;6.754;2023-01-29T19:33:24;101847.84;;;2.25;88.69
28004;BME280;15330;51.234;6.754;2023-01-29T19:35:50;101845.38;;;2.21;89.29
28004;BME280;15330;51.234;6.754;2023-01-29T19:38:15;101844.44;;;2.22;88.99
28004;BME280;15330;51.234;6.754;2023-01-29T19:40:48;101827.81;;;2.20;89.31
28004;BME280;15330;51.234;6.754;2023-01-29T19:43:14;101829.44;;;2.23;89.09
28004;BME280;15330;51.234;6.754;2023-01-29T19:45:42;101818.13;;;2.21;89.29
28004;BME280;15330;51.234;6.754;2023-01-29T19:48:07;101809.34;;;2.20;89.30
28004;BME280;15330;51.234;6.754;2023-01-29T19:50:33;101807.81;;;2.32;89.09
28004;BME280;15330;51.234;6.754;2023-01-29T19:52:58;101800.91;;;2.30;89.23
28004;BME280;15330;51.234;6.754;2023-01-29T19:55:24;101791.63;;;2.22;89.74
28004;BME280;15330;51.234;6.754;2023-01-29T19:57:53;101801.84;;;2.29;89.38
28004;BME280;15330;51.234;6.754;2023-01-29T20:00:19;101795.81;;;2.27;90.27
28004;BME280;15330;51.234;6.754;2023-01-29T20:02:45;101791.63;;;2.22;91.46
28004;BME280;15330;51.234;6.754;2023-01-29T20:05:12;101795.97;;;2.24;91.65
28004;BME280;15330;51.234;6.754;2023-01-29T20:07:40;101784.31;;;2.28;91.68
28004;BME280;15330;51.234;6.754;2023-01-29T20:10:07;101795.50;;;2.17;92.69
28004;BME280;15330;51.234;6.754;2023-01-29T20:12:36;101782.38;;;2.15;93.25
28004;BME280;15330;51.234;6.754;2023-01-29T20:15:01;101768.03;;;2.19;92.77
28004;BME280;15330;51.234;6.754;2023-01-29T20:17:26;101764.06;;;2.28;92.38
28004;BME280;15330;51.234;6.754;2023-01-29T20:19:52;101756.72;;;2.33;92.26
28004;BME280;15330;51.234;6.754;2023-01-29T20:22:17;101755.44;;;2.25;92.45
28004;BME280;15330;51.234;6.754;2023-01-29T20:24:42;101749.47;;;2.21;92.99
28004;BME280;15330;51.234;6.754;2023-01-29T20:27:08;101754.53;;;2.26;93.03
28004;BME280;15330;51.234;6.754;2023-01-29T20:29:35;101730.06;;;2.22;93.24
28004;BME280;15330;51.234;6.754;2023-01-29T20:32:00;101727.31;;;2.39;92.89
28004;BME280;15330;51.234;6.754;2023-01-29T20:34:26;101719.91;;;2.30;93.57
28004;BME280;15330;51.234;6.754;2023-01-29T20:36:51;101731.78;;;2.39;93.30
28004;BME280;15330;51.234;6.754;2023-01-29T20:39:17;101727.66;;;2.33;93.48
28004;BME280;15330;51.234;6.754;2023-01-29T20:41:42;101714.72;;;2.29;94.13
28004;BME280;15330;51.234;6.754;2023-01-29T20:44:07;101714.56;;;2.32;93.69
28004;BME280;15330;51.234;6.754;2023-01-29T20:46:33;101717.97;;;2.34;93.81
28004;BME280;15330;51.234;6.754;2023-01-29T20:49:00;101711.28;;;2.42;93.67
28004;BME280;15330;51.234;6.754;2023-01-29T20:51:26;101699.88;;;2.42;94.00
28004;BME280;15330;51.234;6.754;2023-01-29T20:53:51;101706.69;;;2.46;93.24
28004;BME280;15330;51.234;6.754;2023-01-29T20:56:17;101718.19;;;2.45;93.44
28004;BME280;15330;51.234;6.754;2023-01-29T20:58:43;101711.13;;;2.45;94.01
28004;BME280;15330;51.234;6.754;2023-01-29T21:01:10;101704.63;;;2.51;93.66
28004;BME280;15330;51.234;6.754;2023-01-29T21:03:37;101699.72;;;2.45;93.70
28004;BME280;15330;51.234;6.754;2023-01-29T21:06:03;101694.59;;;2.42;94.05
28004;BME280;15330;51.234;6.754;2023-01-29T21:08:28;101689.06;;;2.46;94.14
28004;BME280;15330;51.234;6.754;2023-01-29T21:10:54;101688.97;;;2.48;94.60
28004;BME280;15330;51.234;6.754;2023-01-29T21:13:19;101705.69;;;2.63;94.29
28004;BME280;15330;51.234;6.754;2023-01-29T21:15:45;101706.41;;;2.50;94.78
28004;BME280;15330;51.234;6.754;2023-01-29T21:18:10;101703.50;;;2.55;94.33
28004;BME280;15330;51.234;6.754;2023-01-29T21:20:36;101693.72;;;2.57;94.54
28004;BME280;15330;51.234;6.754;2023-01-29T21:23:02;101689.75;;;2.64;94.59
28004;BME280;15330;51.234;6.754;2023-01-29T21:25:30;101687.13;;;2.64;94.61
28004;BME280;15330;51.234;6.754;2023-01-29T21:27:56;101669.41;;;2.66;94.54
28004;BME280;15330;51.234;6.754;2023-01-29T21:30:22;101671.94;;;2.68;94.96
28004;BME280;15330;51.234;6.754;2023-01-29T21:32:47;101676.38;;;2.67;95.45
28004;BME280;15330;51.234;6.754;2023-01-29T21:35:12;101669.97;;;2.71;95.59
28004;BME280;15330;51.234;6.754;2023-01-29T21:37:39;101663.25;;;2.66;95.60
28004;BME280;15330;51.234;6.754;2023-01-29T21:40:06;101679.50;;;2.74;95.58
28004;BME280;15330;51.234;6.754;2023-01-29T21:42:31;101683.59;;;2.79;95.24
28004;BME280;15330;51.234;6.754;2023-01-29T21:45:15;101695.94;;;2.79;95.54
28004;BME280;15330;51.234;6.754;2023-01-29T21:47:41;101700.16;;;2.81;95.48
28004;BME280;15330;51.234;6.754;2023-01-29T21:50:07;101689.44;;;2.84;95.81
28004;BME280;15330;51.234;6.754;2023-01-29T21:52:32;101693.78;;;2.85;96.04
28004;BME280;15330;51.234;6.754;2023-01-29T21:54:57;101710.56;;;2.84;96.03
28004;BME280;15330;51.234;6.754;2023-01-29T21:57:23;101704.63;;;2.95;96.13
28004;BME280;15330;51.234;6.754;2023-01-29T21:59:52;101701.22;;;2.93;96.56
28004;BME280;15330;51.234;6.754;2023-01-29T22:02:19;101705.22;;;3.00;96.74
28004;BME280;15330;51.234;6.754;2023-01-29T22:04:44;101709.06;;;2.94;97.36
28004;BME280;15330;51.234;6.754;2023-01-29T22:07:11;101714.44;;;2.93;97.30
28004;BME280;15330;51.234;6.754;2023-01-29T22:09:37;101711.16;;;2.89;97.93
28004;BME280;15330;51.234;6.754;2023-01-29T22:13:25;101695.94;;;2.93;97.60
28004;BME280;15330;51.234;6.754;2023-01-29T22:15:53;101689.16;;;2.89;97.93
28004;BME280;15330;51.234;6.754;2023-01-29T22:18:19;101695.94;;;2.93;98.27
28004;BME280;15330;51.234;6.754;2023-01-29T22:20:44;101697.00;;;2.90;98.49
28004;BME280;15330;51.234;6.754;2023-01-29T22:23:09;101696.78;;;2.93;98.52
28004;BME280;15330;51.234;6.754;2023-01-29T22:25:36;101688.09;;;2.91;99.10
28004;BME280;15330;51.234;6.754;2023-01-29T22:28:02;101684.53;;;2.92;98.78
28004;BME280;15330;51.234;6.754;2023-01-29T22:30:27;101683.97;;;3.02;98.96
28004;BME280;15330;51.234;6.754;2023-01-29T22:32:53;101686.13;;;2.95;99.23
28004;BME280;15330;51.234;6.754;2023-01-29T22:35:18;101687.56;;;3.01;99.15
28004;BME280;15330;51.234;6.754;2023-01-29T22:37:43;101652.72;;;2.80;99.08
28004;BME280;15330;51.234;6.754;2023-01-29T22:40:09;101682.56;;;2.96;99.47
28004;BME280;15330;51.234;6.754;2023-01-29T22:42:35;101674.03;;;2.91;99.92
28004;BME280;15330;51.234;6.754;2023-01-29T22:45:00;101664.22;;;2.93;99.74
28004;BME280;15330;51.234;6.754;2023-01-29T22:47:25;101655.44;;;2.92;100.00
28004;BME280;15330;51.234;6.754;2023-01-29T22:49:54;101663.97;;;2.98;100.00
28004;BME280;15330;51.234;6.754;2023-01-29T22:52:20;101652.81;;;2.92;100.00
28004;BME280;15330;51.234;6.754;2023-01-29T22:54:46;101642.44;;;2.89;100.00
28004;BME280;15330;51.234;6.754;2023-01-29T22:57:12;101633.19;;;2.97;100.00
28004;BME280;15330;51.234;6.754;2023-01-29T22:59:38;101610.81;;;3.02;100.00
28004;BME280;15330;51.234;6.754;2023-01-29T23:02:04;101598.00;;;2.96;100.00
28004;BME280;15330;51.234;6.754;2023-01-29T23:04:29;101599.78;;;2.95;100.00
28004;BME280;15330;51.234;6.754;2023-01-29T23:06:55;101580.78;;;3.03;100.00
28004;BME280;15330;51.234;6.754;2023-01-29T23:09:20;101535.81;;;2.90;100.00
28004;BME280;15330;51.234;6.754;2023-01-29T23:11:46;101549.56;;;2.95;100.00
28004;BME280;15330;51.234;6.754;2023-01-29T23:14:11;101536.63;;;2.91;100.00
28004;BME280;15330;51.234;6.754;2023-01-29T23:16:36;101535.41;;;2.97;100.00
28004;BME280;15330;51.234;6.754;2023-01-29T23:19:02;101532.09;;;2.93;100.00
28004;BME280;15330;51.234;6.754;2023-01-29T23:21:27;101538.06;;;2.97;100.00
28004;BME280;15330;51.234;6.754;2023-01-29T23:23:53;101525.69;;;2.97;100.00
28004;BME280;15330;51.234;6.754;2023-01-29T23:26:24;101539.56;;;3.01;100.00
28004;BME280;15330;51.234;6.754;2023-01-29T23:29:09;101556.25;;;3.01;100.00